sensor_id;sensor_type;location;lat;lon;timestamp;temperature;humidity
32650;DHT22;19055;51.064;3.712;2022-09-03T00:01:15;22.00;80.30
32650;DHT22;19055;51.064;3.712;2022-09-03T00:03:50;22.00;80.30
32650;DHT22;19055;51.064;3.712;2022-09-03T00:06:19;22.00;80.40
32650;DHT22;19055;51.064;3.712;2022-09-03T00:11:55;21.90;80.50
32650;DHT22;19055;51.064;3.712;2022-09-03T00:15:04;21.80;80.70
32650;DHT22;19055;51.064;3.712;2022-09-03T00:17:41;21.80;81.00
32650;DHT22;19055;51.064;3.712;2022-09-03T00:20:16;21.70;81.10
32650;DHT22;19055;51.064;3.712;2022-09-03T00:22:50;21.80;81.30
32650;DHT22;19055;51.064;3.712;2022-09-03T00:25:22;21.80;81.20
32650;DHT22;19055;51.064;3.712;2022-09-03T00:27:52;21.80;81.10
32650;DHT22;19055;51.064;3.712;2022-09-03T00:30:20;21.80;81.00
32650;DHT22;19055;51.064;3.712;2022-09-03T00:33:02;21.80;81.00
32650;DHT22;19055;51.064;3.712;2022-09-03T00:35:46;21.80;80.90
32650;DHT22;19055;51.064;3.712;2022-09-03T00:38:14;22.00;80.80
32650;DHT22;19055;51.064;3.712;2022-09-03T00:55:12;22.10;80.30
32650;DHT22;19055;51.064;3.712;2022-09-03T01:00:19;22.10;80.40
32650;DHT22;19055;51.064;3.712;2022-09-03T01:03:05;22.10;80.40
32650;DHT22;19055;51.064;3.712;2022-09-03T01:13:52;22.00;80.60
32650;DHT22;19055;51.064;3.712;2022-09-03T01:27:17;21.90;81.00
32650;DHT22;19055;51.064;3.712;2022-09-03T01:29:58;21.90;81.00
32650;DHT22;19055;51.064;3.712;2022-09-03T01:41:12;21.70;81.60
32650;DHT22;19055;51.064;3.712;2022-09-03T01:47:14;21.80;81.70
32650;DHT22;19055;51.064;3.712;2022-09-03T01:52:58;21.90;81.30
32650;DHT22;19055;51.064;3.712;2022-09-03T01:56:05;21.90;81.10
32650;DHT22;19055;51.064;3.712;2022-09-03T01:58:48;21.90;81.10
32650;DHT22;19055;51.064;3.712;2022-09-03T02:01:25;21.90;81.00
32650;DHT22;19055;51.064;3.712;2022-09-03T02:03:53;21.80;81.10
32650;DHT22;19055;51.064;3.712;2022-09-03T02:06:28;21.80;81.20
32650;DHT22;19055;51.064;3.712;2022-09-03T02:08:58;21.80;81.30
32650;DHT22;19055;51.064;3.712;2022-09-03T02:11:24;21.80;81.50
32650;DHT22;19055;51.064;3.712;2022-09-03T02:13:52;21.70;81.50
32650;DHT22;19055;51.064;3.712;2022-09-03T02:16:22;21.60;81.70
32650;DHT22;19055;51.064;3.712;2022-09-03T02:19:00;21.50;82.10
32650;DHT22;19055;51.064;3.712;2022-09-03T02:21:32;21.50;82.40
32650;DHT22;19055;51.064;3.712;2022-09-03T02:23:58;21.40;82.50
32650;DHT22;19055;51.064;3.712;2022-09-03T02:26:25;21.40;82.90
32650;DHT22;19055;51.064;3.712;2022-09-03T02:28:52;21.40;83.20
32650;DHT22;19055;51.064;3.712;2022-09-03T02:31:18;21.30;83.50
32650;DHT22;19055;51.064;3.712;2022-09-03T02:33:45;21.30;83.50
32650;DHT22;19055;51.064;3.712;2022-09-03T02:36:16;21.30;83.60
32650;DHT22;19055;51.064;3.712;2022-09-03T02:38:44;21.40;83.40
32650;DHT22;19055;51.064;3.712;2022-09-03T02:41:10;21.40;83.30
32650;DHT22;19055;51.064;3.712;2022-09-03T02:43:51;21.40;83.20
32650;DHT22;19055;51.064;3.712;2022-09-03T02:46:21;21.50;83.20
32650;DHT22;19055;51.064;3.712;2022-09-03T02:48:48;21.50;83.10
32650;DHT22;19055;51.064;3.712;2022-09-03T02:51:14;21.50;83.10
32650;DHT22;19055;51.064;3.712;2022-09-03T02:53:41;21.50;83.10
32650;DHT22;19055;51.064;3.712;2022-09-03T02:56:07;21.50;83.10
32650;DHT22;19055;51.064;3.712;2022-09-03T02:58:33;21.40;83.20
32650;DHT22;19055;51.064;3.712;2022-09-03T03:01:00;21.40;83.40
32650;DHT22;19055;51.064;3.712;2022-09-03T03:03:26;21.40;83.60
32650;DHT22;19055;51.064;3.712;2022-09-03T03:05:55;21.40;83.70
32650;DHT22;19055;51.064;3.712;2022-09-03T03:08:25;21.40;83.50
32650;DHT22;19055;51.064;3.712;2022-09-03T03:10:54;21.40;83.50
32650;DHT22;19055;51.064;3.712;2022-09-03T03:13:23;21.40;83.60
32650;DHT22;19055;51.064;3.712;2022-09-03T03:15:48;21.40;83.40
32650;DHT22;19055;51.064;3.712;2022-09-03T03:18:14;21.50;83.40
32650;DHT22;19055;51.064;3.712;2022-09-03T03:20:42;21.50;83.30
32650;DHT22;19055;51.064;3.712;2022-09-03T03:23:09;21.50;83.40
32650;DHT22;19055;51.064;3.712;2022-09-03T03:25:37;21.50;83.50
32650;DHT22;19055;51.064;3.712;2022-09-03T03:28:04;21.50;83.80
32650;DHT22;19055;51.064;3.712;2022-09-03T03:30:31;21.50;83.60
32650;DHT22;19055;51.064;3.712;2022-09-03T03:32:57;21.50;83.70
32650;DHT22;19055;51.064;3.712;2022-09-03T03:35:23;21.50;83.30
32650;DHT22;19055;51.064;3.712;2022-09-03T03:37:49;21.50;83.60
32650;DHT22;19055;51.064;3.712;2022-09-03T03:40:15;21.40;83.70
32650;DHT22;19055;51.064;3.712;2022-09-03T03:42:41;21.40;83.80
32650;DHT22;19055;51.064;3.712;2022-09-03T03:45:07;21.50;83.60
32650;DHT22;19055;51.064;3.712;2022-09-03T03:47:35;21.50;83.50
32650;DHT22;19055;51.064;3.712;2022-09-03T03:50:01;21.40;83.50
32650;DHT22;19055;51.064;3.712;2022-09-03T03:52:27;21.40;83.50
32650;DHT22;19055;51.064;3.712;2022-09-03T03:54:53;21.50;83.10
32650;DHT22;19055;51.064;3.712;2022-09-03T03:57:20;21.40;83.40
32650;DHT22;19055;51.064;3.712;2022-09-03T03:59:46;21.40;83.50
32650;DHT22;19055;51.064;3.712;2022-09-03T04:02:13;21.30;83.50
32650;DHT22;19055;51.064;3.712;2022-09-03T04:04:39;21.30;83.50
32650;DHT22;19055;51.064;3.712;2022-09-03T04:07:05;21.30;83.50
32650;DHT22;19055;51.064;3.712;2022-09-03T04:09:31;21.30;84.20
32650;DHT22;19055;51.064;3.712;2022-09-03T04:11:57;21.30;83.30
32650;DHT22;19055;51.064;3.712;2022-09-03T04:14:23;20.90;84.60
32650;DHT22;19055;51.064;3.712;2022-09-03T04:16:49;20.80;85.40
32650;DHT22;19055;51.064;3.712;2022-09-03T04:19:16;20.70;86.00
32650;DHT22;19055;51.064;3.712;2022-09-03T04:21:42;20.60;86.70
32650;DHT22;19055;51.064;3.712;2022-09-03T04:24:08;20.60;88.10
32650;DHT22;19055;51.064;3.712;2022-09-03T04:26:35;20.70;89.30
32650;DHT22;19055;51.064;3.712;2022-09-03T04:29:03;20.60;90.70
32650;DHT22;19055;51.064;3.712;2022-09-03T04:31:30;20.50;91.00
32650;DHT22;19055;51.064;3.712;2022-09-03T04:33:56;20.50;91.20
32650;DHT22;19055;51.064;3.712;2022-09-03T04:36:23;20.40;90.90
32650;DHT22;19055;51.064;3.712;2022-09-03T04:38:52;20.40;91.30
32650;DHT22;19055;51.064;3.712;2022-09-03T04:41:21;20.40;91.10
32650;DHT22;19055;51.064;3.712;2022-09-03T04:43:53;20.50;91.60
32650;DHT22;19055;51.064;3.712;2022-09-03T04:46:21;20.50;91.70
32650;DHT22;19055;51.064;3.712;2022-09-03T04:48:49;20.60;91.80
32650;DHT22;19055;51.064;3.712;2022-09-03T04:51:18;20.60;91.80
32650;DHT22;19055;51.064;3.712;2022-09-03T04:53:46;20.60;91.90
32650;DHT22;19055;51.064;3.712;2022-09-03T04:56:20;20.60;92.10
32650;DHT22;19055;51.064;3.712;2022-09-03T04:58:47;20.60;92.30
32650;DHT22;19055;51.064;3.712;2022-09-03T05:01:17;20.60;92.40
32650;DHT22;19055;51.064;3.712;2022-09-03T05:03:43;20.60;92.40
32650;DHT22;19055;51.064;3.712;2022-09-03T05:06:09;20.50;92.40
32650;DHT22;19055;51.064;3.712;2022-09-03T05:08:35;20.50;92.50
32650;DHT22;19055;51.064;3.712;2022-09-03T05:11:03;20.50;92.60
32650;DHT22;19055;51.064;3.712;2022-09-03T05:13:29;20.50;92.60
32650;DHT22;19055;51.064;3.712;2022-09-03T05:16:07;20.50;92.60
32650;DHT22;19055;51.064;3.712;2022-09-03T05:18:34;20.50;92.70
32650;DHT22;19055;51.064;3.712;2022-09-03T05:21:08;20.50;92.70
32650;DHT22;19055;51.064;3.712;2022-09-03T05:23:37;20.40;93.10
32650;DHT22;19055;51.064;3.712;2022-09-03T05:26:07;20.30;93.30
32650;DHT22;19055;51.064;3.712;2022-09-03T05:28:35;20.20;93.50
32650;DHT22;19055;51.064;3.712;2022-09-03T05:31:03;20.20;93.80
32650;DHT22;19055;51.064;3.712;2022-09-03T05:33:29;20.20;94.00
32650;DHT22;19055;51.064;3.712;2022-09-03T05:36:03;20.30;94.10
32650;DHT22;19055;51.064;3.712;2022-09-03T05:38:30;20.20;94.10
32650;DHT22;19055;51.064;3.712;2022-09-03T05:41:00;20.10;94.10
32650;DHT22;19055;51.064;3.712;2022-09-03T05:43:28;20.10;94.30
32650;DHT22;19055;51.064;3.712;2022-09-03T05:46:04;20.20;94.50
32650;DHT22;19055;51.064;3.712;2022-09-03T05:48:32;20.20;94.30
32650;DHT22;19055;51.064;3.712;2022-09-03T05:51:07;20.20;94.40
32650;DHT22;19055;51.064;3.712;2022-09-03T05:53:35;20.30;94.50
32650;DHT22;19055;51.064;3.712;2022-09-03T05:56:04;20.40;94.30
32650;DHT22;19055;51.064;3.712;2022-09-03T05:58:38;20.50;94.20
32650;DHT22;19055;51.064;3.712;2022-09-03T06:01:24;20.50;93.80
32650;DHT22;19055;51.064;3.712;2022-09-03T06:03:58;20.70;93.70
32650;DHT22;19055;51.064;3.712;2022-09-03T06:06:25;20.90;93.50
32650;DHT22;19055;51.064;3.712;2022-09-03T06:08:53;21.00;93.30
32650;DHT22;19055;51.064;3.712;2022-09-03T06:11:20;21.10;93.30
32650;DHT22;19055;51.064;3.712;2022-09-03T06:13:48;21.10;92.90
32650;DHT22;19055;51.064;3.712;2022-09-03T06:16:13;21.10;92.50
32650;DHT22;19055;51.064;3.712;2022-09-03T06:18:40;21.10;92.60
32650;DHT22;19055;51.064;3.712;2022-09-03T06:21:06;21.20;92.60
32650;DHT22;19055;51.064;3.712;2022-09-03T06:23:33;21.30;92.50
32650;DHT22;19055;51.064;3.712;2022-09-03T06:26:09;21.40;92.30
32650;DHT22;19055;51.064;3.712;2022-09-03T06:28:38;21.60;92.10
32650;DHT22;19055;51.064;3.712;2022-09-03T06:31:07;21.70;91.80
32650;DHT22;19055;51.064;3.712;2022-09-03T06:33:35;21.90;91.40
32650;DHT22;19055;51.064;3.712;2022-09-03T06:36:04;21.90;90.80
32650;DHT22;19055;51.064;3.712;2022-09-03T06:38:31;21.90;90.30
32650;DHT22;19055;51.064;3.712;2022-09-03T06:40:59;21.80;90.30
32650;DHT22;19055;51.064;3.712;2022-09-03T06:43:31;21.80;90.40
32650;DHT22;19055;51.064;3.712;2022-09-03T06:45:59;22.00;90.50
32650;DHT22;19055;51.064;3.712;2022-09-03T06:48:26;22.00;90.20
32650;DHT22;19055;51.064;3.712;2022-09-03T06:51:13;22.20;89.80
32650;DHT22;19055;51.064;3.712;2022-09-03T06:53:50;22.20;88.00
32650;DHT22;19055;51.064;3.712;2022-09-03T06:56:23;22.10;88.20
32650;DHT22;19055;51.064;3.712;2022-09-03T06:58:54;22.20;88.40
32650;DHT22;19055;51.064;3.712;2022-09-03T07:01:22;22.10;88.20
32650;DHT22;19055;51.064;3.712;2022-09-03T07:03:58;22.10;88.10
32650;DHT22;19055;51.064;3.712;2022-09-03T07:06:30;21.90;89.10
32650;DHT22;19055;51.064;3.712;2022-09-03T07:08:56;21.80;90.00
32650;DHT22;19055;51.064;3.712;2022-09-03T07:11:27;21.70;90.40
32650;DHT22;19055;51.064;3.712;2022-09-03T07:13:56;21.70;90.60
32650;DHT22;19055;51.064;3.712;2022-09-03T07:16:27;21.70;90.60
32650;DHT22;19055;51.064;3.712;2022-09-03T07:18:54;21.70;90.70
32650;DHT22;19055;51.064;3.712;2022-09-03T07:21:27;21.90;90.20
32650;DHT22;19055;51.064;3.712;2022-09-03T07:23:54;22.00;90.10
32650;DHT22;19055;51.064;3.712;2022-09-03T07:26:29;22.00;88.70
32650;DHT22;19055;51.064;3.712;2022-09-03T07:28:55;21.90;89.30
32650;DHT22;19055;51.064;3.712;2022-09-03T07:31:30;22.00;89.50
32650;DHT22;19055;51.064;3.712;2022-09-03T07:33:58;22.30;88.80
32650;DHT22;19055;51.064;3.712;2022-09-03T07:36:25;22.50;87.90
32650;DHT22;19055;51.064;3.712;2022-09-03T07:38:55;22.50;86.40
32650;DHT22;19055;51.064;3.712;2022-09-03T07:41:22;22.40;86.50
32650;DHT22;19055;51.064;3.712;2022-09-03T07:43:49;22.20;87.90
32650;DHT22;19055;51.064;3.712;2022-09-03T07:46:18;22.00;88.90
32650;DHT22;19055;51.064;3.712;2022-09-03T07:48:49;22.10;89.10
32650;DHT22;19055;51.064;3.712;2022-09-03T07:51:16;22.40;88.50
32650;DHT22;19055;51.064;3.712;2022-09-03T07:53:46;22.20;87.80
32650;DHT22;19055;51.064;3.712;2022-09-03T07:56:12;22.10;88.90
32650;DHT22;19055;51.064;3.712;2022-09-03T07:58:39;22.00;89.50
32650;DHT22;19055;51.064;3.712;2022-09-03T08:01:13;22.10;89.80
32650;DHT22;19055;51.064;3.712;2022-09-03T08:03:43;22.10;89.90
32650;DHT22;19055;51.064;3.712;2022-09-03T08:06:09;22.20;89.60
32650;DHT22;19055;51.064;3.712;2022-09-03T08:08:35;22.20;89.60
32650;DHT22;19055;51.064;3.712;2022-09-03T08:11:13;22.20;89.40
32650;DHT22;19055;51.064;3.712;2022-09-03T08:16:09;22.60;88.50
32650;DHT22;19055;51.064;3.712;2022-09-03T08:18:36;22.70;87.90
32650;DHT22;19055;51.064;3.712;2022-09-03T08:21:11;22.80;87.40
32650;DHT22;19055;51.064;3.712;2022-09-03T08:23:41;23.00;87.00
32650;DHT22;19055;51.064;3.712;2022-09-03T08:26:07;23.60;85.40
32650;DHT22;19055;51.064;3.712;2022-09-03T08:28:34;24.00;83.40
32650;DHT22;19055;51.064;3.712;2022-09-03T08:31:20;24.00;81.60
32650;DHT22;19055;51.064;3.712;2022-09-03T08:33:49;23.90;81.00
32650;DHT22;19055;51.064;3.712;2022-09-03T08:36:22;24.00;81.20
32650;DHT22;19055;51.064;3.712;2022-09-03T08:38:49;24.20;80.40
32650;DHT22;19055;51.064;3.712;2022-09-03T08:49:25;26.60;71.40
32650;DHT22;19055;51.064;3.712;2022-09-03T08:51:53;26.40;71.20
32650;DHT22;19055;51.064;3.712;2022-09-03T08:54:24;26.40;72.00
32650;DHT22;19055;51.064;3.712;2022-09-03T08:56:52;26.20;71.30
32650;DHT22;19055;51.064;3.712;2022-09-03T08:59:18;25.50;73.40
32650;DHT22;19055;51.064;3.712;2022-09-03T09:01:56;24.70;76.70
32650;DHT22;19055;51.064;3.712;2022-09-03T09:07:16;24.30;78.70
32650;DHT22;19055;51.064;3.712;2022-09-03T09:09:47;24.60;77.80
32650;DHT22;19055;51.064;3.712;2022-09-03T09:12:46;25.20;75.80
32650;DHT22;19055;51.064;3.712;2022-09-03T09:15:45;25.90;74.10
32650;DHT22;19055;51.064;3.712;2022-09-03T09:23:49;25.30;74.50
32650;DHT22;19055;51.064;3.712;2022-09-03T09:26:17;25.40;75.00
32650;DHT22;19055;51.064;3.712;2022-09-03T09:28:45;25.80;74.30
32650;DHT22;19055;51.064;3.712;2022-09-03T09:31:14;26.20;72.10
32650;DHT22;19055;51.064;3.712;2022-09-03T09:33:41;26.90;71.00
32650;DHT22;19055;51.064;3.712;2022-09-03T09:36:15;27.60;67.50
32650;DHT22;19055;51.064;3.712;2022-09-03T09:38:42;26.70;69.40
32650;DHT22;19055;51.064;3.712;2022-09-03T09:41:14;26.60;70.70
32650;DHT22;19055;51.064;3.712;2022-09-03T09:43:40;26.40;71.00
32650;DHT22;19055;51.064;3.712;2022-09-03T09:46:20;26.50;70.60
32650;DHT22;19055;51.064;3.712;2022-09-03T09:48:50;26.60;71.10
32650;DHT22;19055;51.064;3.712;2022-09-03T09:51:22;27.10;69.50
32650;DHT22;19055;51.064;3.712;2022-09-03T09:56:27;27.70;67.00
32650;DHT22;19055;51.064;3.712;2022-09-03T09:59:07;27.80;66.70
32650;DHT22;19055;51.064;3.712;2022-09-03T10:01:42;27.90;66.40
32650;DHT22;19055;51.064;3.712;2022-09-03T10:04:21;28.10;65.80
32650;DHT22;19055;51.064;3.712;2022-09-03T10:09:40;28.70;63.50
32650;DHT22;19055;51.064;3.712;2022-09-03T10:12:17;28.10;64.00
32650;DHT22;19055;51.064;3.712;2022-09-03T10:15:06;28.40;64.70
32650;DHT22;19055;51.064;3.712;2022-09-03T10:17:55;28.20;64.20
32650;DHT22;19055;51.064;3.712;2022-09-03T10:20:41;27.60;66.00
32650;DHT22;19055;51.064;3.712;2022-09-03T10:23:24;27.00;68.30
32650;DHT22;19055;51.064;3.712;2022-09-03T10:26:09;27.20;68.80
32650;DHT22;19055;51.064;3.712;2022-09-03T10:28:38;28.30;66.00
32650;DHT22;19055;51.064;3.712;2022-09-03T10:36:39;29.50;61.00
32650;DHT22;19055;51.064;3.712;2022-09-03T10:42:54;30.90;57.80
32650;DHT22;19055;51.064;3.712;2022-09-03T10:50:29;30.50;57.90
32650;DHT22;19055;51.064;3.712;2022-09-03T10:53:13;31.60;54.60
32650;DHT22;19055;51.064;3.712;2022-09-03T11:01:20;32.80;50.50
32650;DHT22;19055;51.064;3.712;2022-09-03T11:04:15;32.80;50.20
32650;DHT22;19055;51.064;3.712;2022-09-03T11:06:53;32.90;49.40
32650;DHT22;19055;51.064;3.712;2022-09-03T11:09:38;32.80;49.20
32650;DHT22;19055;51.064;3.712;2022-09-03T11:12:10;32.60;49.50
32650;DHT22;19055;51.064;3.712;2022-09-03T11:14:45;32.50;49.40
32650;DHT22;19055;51.064;3.712;2022-09-03T11:17:18;32.10;49.30
32650;DHT22;19055;51.064;3.712;2022-09-03T11:19:56;30.60;52.20
32650;DHT22;19055;51.064;3.712;2022-09-03T11:22:25;30.30;53.70
32650;DHT22;19055;51.064;3.712;2022-09-03T11:24:55;30.50;53.80
32650;DHT22;19055;51.064;3.712;2022-09-03T11:30:02;31.40;51.90
32650;DHT22;19055;51.064;3.712;2022-09-03T11:32:50;31.70;51.10
32650;DHT22;19055;51.064;3.712;2022-09-03T11:35:39;32.30;49.90
32650;DHT22;19055;51.064;3.712;2022-09-03T11:46:51;32.80;48.50
32650;DHT22;19055;51.064;3.712;2022-09-03T11:48:54;32.60;49.00
32650;DHT22;19055;51.064;3.712;2022-09-03T11:54:05;32.80;48.40
32650;DHT22;19055;51.064;3.712;2022-09-03T11:56:34;32.90;48.10
32650;DHT22;19055;51.064;3.712;2022-09-03T11:59:05;32.90;48.10
32650;DHT22;19055;51.064;3.712;2022-09-03T12:01:57;32.90;47.80
32650;DHT22;19055;51.064;3.712;2022-09-03T12:21:53;32.30;48.40
32650;DHT22;19055;51.064;3.712;2022-09-03T12:24:21;32.00;49.50
32650;DHT22;19055;51.064;3.712;2022-09-03T12:26:48;31.90;48.90
32650;DHT22;19055;51.064;3.712;2022-09-03T12:29:23;31.80;49.10
32650;DHT22;19055;51.064;3.712;2022-09-03T12:31:49;32.00;49.10
32650;DHT22;19055;51.064;3.712;2022-09-03T12:34:18;32.00;49.00
32650;DHT22;19055;51.064;3.712;2022-09-03T12:36:47;31.70;49.50
32650;DHT22;19055;51.064;3.712;2022-09-03T12:39:16;31.50;49.70
32650;DHT22;19055;51.064;3.712;2022-09-03T12:42:05;31.20;50.40
32650;DHT22;19055;51.064;3.712;2022-09-03T12:44:39;31.10;50.80
32650;DHT22;19055;51.064;3.712;2022-09-03T12:49:44;30.60;52.30
32650;DHT22;19055;51.064;3.712;2022-09-03T12:52:42;30.60;52.70
32650;DHT22;19055;51.064;3.712;2022-09-03T12:58:13;30.90;52.40
32650;DHT22;19055;51.064;3.712;2022-09-03T13:01:07;30.20;53.10
32650;DHT22;19055;51.064;3.712;2022-09-03T13:03:45;29.30;55.90
32650;DHT22;19055;51.064;3.712;2022-09-03T13:06:14;29.70;54.40
32650;DHT22;19055;51.064;3.712;2022-09-03T13:08:52;30.40;53.20
32650;DHT22;19055;51.064;3.712;2022-09-03T13:11:21;30.80;51.50
32650;DHT22;19055;51.064;3.712;2022-09-03T13:14:07;31.00;50.70
32650;DHT22;19055;51.064;3.712;2022-09-03T13:25:11;31.00;50.60
32650;DHT22;19055;51.064;3.712;2022-09-03T13:30:41;30.80;50.70
32650;DHT22;19055;51.064;3.712;2022-09-03T13:33:27;30.80;50.70
32650;DHT22;19055;51.064;3.712;2022-09-03T13:39:32;30.90;50.60
32650;DHT22;19055;51.064;3.712;2022-09-03T13:42:08;30.80;50.60
32650;DHT22;19055;51.064;3.712;2022-09-03T13:44:47;30.60;51.40
32650;DHT22;19055;51.064;3.712;2022-09-03T13:50:17;30.30;51.90
32650;DHT22;19055;51.064;3.712;2022-09-03T13:53:26;30.40;51.70
32650;DHT22;19055;51.064;3.712;2022-09-03T13:55:53;30.40;51.50
32650;DHT22;19055;51.064;3.712;2022-09-03T14:03:54;29.90;52.50
32650;DHT22;19055;51.064;3.712;2022-09-03T14:06:43;29.90;53.10
32650;DHT22;19055;51.064;3.712;2022-09-03T14:15:07;29.90;53.10
32650;DHT22;19055;51.064;3.712;2022-09-03T14:20:46;29.80;52.70
32650;DHT22;19055;51.064;3.712;2022-09-03T14:26:02;29.60;53.20
32650;DHT22;19055;51.064;3.712;2022-09-03T14:28:35;29.70;53.50
32650;DHT22;19055;51.064;3.712;2022-09-03T14:34:26;29.50;54.40
32650;DHT22;19055;51.064;3.712;2022-09-03T14:40:17;30.00;53.00
32650;DHT22;19055;51.064;3.712;2022-09-03T14:48:49;30.00;52.30
32650;DHT22;19055;51.064;3.712;2022-09-03T14:51:30;30.50;50.60
32650;DHT22;19055;51.064;3.712;2022-09-03T14:54:22;30.50;50.20
32650;DHT22;19055;51.064;3.712;2022-09-03T15:05:13;30.60;48.60
32650;DHT22;19055;51.064;3.712;2022-09-03T15:13:15;30.00;49.90
32650;DHT22;19055;51.064;3.712;2022-09-03T15:18:31;29.70;51.50
32650;DHT22;19055;51.064;3.712;2022-09-03T15:21:24;29.80;51.50
32650;DHT22;19055;51.064;3.712;2022-09-03T15:26:57;30.20;51.30
32650;DHT22;19055;51.064;3.712;2022-09-03T15:29:39;30.20;51.20
32650;DHT22;19055;51.064;3.712;2022-09-03T15:37:51;30.20;51.50
32650;DHT22;19055;51.064;3.712;2022-09-03T15:40:27;30.30;51.50
32650;DHT22;19055;51.064;3.712;2022-09-03T15:42:59;30.20;51.30
32650;DHT22;19055;51.064;3.712;2022-09-03T15:51:21;29.70;52.00
32650;DHT22;19055;51.064;3.712;2022-09-03T15:53:55;29.50;52.50
32650;DHT22;19055;51.064;3.712;2022-09-03T15:56:39;29.40;52.50
32650;DHT22;19055;51.064;3.712;2022-09-03T15:59:18;29.20;53.40
32650;DHT22;19055;51.064;3.712;2022-09-03T16:10:19;28.50;55.10
32650;DHT22;19055;51.064;3.712;2022-09-03T16:15:36;28.50;55.50
32650;DHT22;19055;51.064;3.712;2022-09-03T16:18:05;28.50;55.40
32650;DHT22;19055;51.064;3.712;2022-09-03T16:20:43;28.50;55.70
32650;DHT22;19055;51.064;3.712;2022-09-03T16:26:25;28.50;55.70
32650;DHT22;19055;51.064;3.712;2022-09-03T16:29:02;28.50;55.60
32650;DHT22;19055;51.064;3.712;2022-09-03T16:37:13;28.60;56.50
32650;DHT22;19055;51.064;3.712;2022-09-03T16:42:31;28.60;56.30
32650;DHT22;19055;51.064;3.712;2022-09-03T16:51:09;28.70;56.70
32650;DHT22;19055;51.064;3.712;2022-09-03T17:07:55;28.10;57.30
32650;DHT22;19055;51.064;3.712;2022-09-03T17:19:10;27.90;58.10
32650;DHT22;19055;51.064;3.712;2022-09-03T17:38:04;27.20;59.90
32650;DHT22;19055;51.064;3.712;2022-09-03T17:43:53;27.10;60.60
32650;DHT22;19055;51.064;3.712;2022-09-03T17:47:04;27.00;61.00
32650;DHT22;19055;51.064;3.712;2022-09-03T17:49:44;27.00;61.20
32650;DHT22;19055;51.064;3.712;2022-09-03T17:54:53;26.70;61.60
32650;DHT22;19055;51.064;3.712;2022-09-03T17:57:28;26.60;62.70
32650;DHT22;19055;51.064;3.712;2022-09-03T18:00:00;26.60;61.90
32650;DHT22;19055;51.064;3.712;2022-09-03T18:05:25;26.40;62.20
32650;DHT22;19055;51.064;3.712;2022-09-03T18:08:17;26.30;62.50
32650;DHT22;19055;51.064;3.712;2022-09-03T18:11:17;26.20;62.50
32650;DHT22;19055;51.064;3.712;2022-09-03T18:14:14;26.00;62.80
32650;DHT22;19055;51.064;3.712;2022-09-03T18:19:59;25.90;63.00
32650;DHT22;19055;51.064;3.712;2022-09-03T18:26:07;25.80;63.60
32650;DHT22;19055;51.064;3.712;2022-09-03T18:29:12;25.80;63.90
32650;DHT22;19055;51.064;3.712;2022-09-03T18:31:59;25.80;63.80
32650;DHT22;19055;51.064;3.712;2022-09-03T18:34:45;25.80;63.90
32650;DHT22;19055;51.064;3.712;2022-09-03T18:37:30;25.80;63.80
32650;DHT22;19055;51.064;3.712;2022-09-03T18:40:32;25.80;63.90
32650;DHT22;19055;51.064;3.712;2022-09-03T18:43:36;25.70;63.90
32650;DHT22;19055;51.064;3.712;2022-09-03T18:46:31;25.70;64.00
32650;DHT22;19055;51.064;3.712;2022-09-03T18:49:41;25.60;64.20
32650;DHT22;19055;51.064;3.712;2022-09-03T18:52:55;25.50;64.70
32650;DHT22;19055;51.064;3.712;2022-09-03T18:59:23;25.40;65.20
32650;DHT22;19055;51.064;3.712;2022-09-03T19:02:09;25.40;65.50
32650;DHT22;19055;51.064;3.712;2022-09-03T19:05:13;25.30;65.60
32650;DHT22;19055;51.064;3.712;2022-09-03T19:08:08;25.30;65.70
32650;DHT22;19055;51.064;3.712;2022-09-03T19:13:57;25.20;65.90
32650;DHT22;19055;51.064;3.712;2022-09-03T19:16:52;25.20;66.00
32650;DHT22;19055;51.064;3.712;2022-09-03T19:20:21;25.20;66.10
32650;DHT22;19055;51.064;3.712;2022-09-03T19:23:10;25.20;66.00
32650;DHT22;19055;51.064;3.712;2022-09-03T19:25:57;25.20;66.10
32650;DHT22;19055;51.064;3.712;2022-09-03T19:28:46;25.20;66.10
32650;DHT22;19055;51.064;3.712;2022-09-03T19:31:49;25.20;66.30
32650;DHT22;19055;51.064;3.712;2022-09-03T19:37:50;25.20;66.50
32650;DHT22;19055;51.064;3.712;2022-09-03T19:47:30;25.10;66.90
32650;DHT22;19055;51.064;3.712;2022-09-03T19:50:24;25.10;67.20
32650;DHT22;19055;51.064;3.712;2022-09-03T19:53:17;25.00;67.50
32650;DHT22;19055;51.064;3.712;2022-09-03T19:56:10;25.00;68.10
32650;DHT22;19055;51.064;3.712;2022-09-03T19:58:59;24.90;68.40
32650;DHT22;19055;51.064;3.712;2022-09-03T20:01:45;24.80;69.80
32650;DHT22;19055;51.064;3.712;2022-09-03T20:05:00;24.70;69.50
32650;DHT22;19055;51.064;3.712;2022-09-03T20:07:48;24.70;70.00
32650;DHT22;19055;51.064;3.712;2022-09-03T20:10:34;24.60;70.20
32650;DHT22;19055;51.064;3.712;2022-09-03T20:15:45;24.50;70.80
32650;DHT22;19055;51.064;3.712;2022-09-03T20:30:26;24.30;72.50
32650;DHT22;19055;51.064;3.712;2022-09-03T20:35:36;24.30;72.90
32650;DHT22;19055;51.064;3.712;2022-09-03T20:41:27;24.10;73.40
32650;DHT22;19055;51.064;3.712;2022-09-03T20:52:34;24.00;74.60
32650;DHT22;19055;51.064;3.712;2022-09-03T20:55:14;23.90;74.90
32650;DHT22;19055;51.064;3.712;2022-09-03T20:57:59;23.80;75.20
32650;DHT22;19055;51.064;3.712;2022-09-03T21:00:38;23.80;75.60
32650;DHT22;19055;51.064;3.712;2022-09-03T21:03:20;23.70;75.90
32650;DHT22;19055;51.064;3.712;2022-09-03T21:11:42;23.60;76.60
32650;DHT22;19055;51.064;3.712;2022-09-03T21:14:31;23.60;76.90
32650;DHT22;19055;51.064;3.712;2022-09-03T21:17:23;23.70;77.00
32650;DHT22;19055;51.064;3.712;2022-09-03T21:22:54;23.60;77.50
32650;DHT22;19055;51.064;3.712;2022-09-03T21:25:37;23.60;78.20
32650;DHT22;19055;51.064;3.712;2022-09-03T21:30:35;23.40;79.60
32650;DHT22;19055;51.064;3.712;2022-09-03T21:33:10;23.30;80.40
32650;DHT22;19055;51.064;3.712;2022-09-03T21:35:53;23.20;81.20
32650;DHT22;19055;51.064;3.712;2022-09-03T21:38:26;23.10;82.10
32650;DHT22;19055;51.064;3.712;2022-09-03T21:43:49;22.90;83.70
32650;DHT22;19055;51.064;3.712;2022-09-03T21:46:33;22.90;84.50
32650;DHT22;19055;51.064;3.712;2022-09-03T21:49:05;22.80;85.10
32650;DHT22;19055;51.064;3.712;2022-09-03T21:51:38;22.80;85.90
32650;DHT22;19055;51.064;3.712;2022-09-03T21:54:10;22.70;86.60
32650;DHT22;19055;51.064;3.712;2022-09-03T21:56:52;22.60;87.40
32650;DHT22;19055;51.064;3.712;2022-09-03T22:02:39;22.50;88.80
32650;DHT22;19055;51.064;3.712;2022-09-03T22:05:05;22.50;89.50
32650;DHT22;19055;51.064;3.712;2022-09-03T22:07:42;22.50;90.00
32650;DHT22;19055;51.064;3.712;2022-09-03T22:12:48;22.50;90.50
32650;DHT22;19055;51.064;3.712;2022-09-03T22:15:17;22.40;90.70
32650;DHT22;19055;51.064;3.712;2022-09-03T22:17:50;22.40;90.80
32650;DHT22;19055;51.064;3.712;2022-09-03T22:20:19;22.50;91.00